sensor_id;sensor_type;location;lat;lon;timestamp;P1;durP1;ratioP1;P2;durP2;ratioP2
20910;SDS011;10615;42.702;23.314;2024-03-02T00:00:40;32.40;;;21.08;;
20910;SDS011;10615;42.702;23.314;2024-03-02T00:01:41;28.42;;;18.60;;
20910;SDS011;10615;42.702;23.314;2024-03-02T00:02:42;30.75;;;19.98;;
20910;SDS011;10615;42.702;23.314;2024-03-02T00:03:46;28.75;;;18.63;;
20910;SDS011;10615;42.702;23.314;2024-03-02T00:04:47;32.42;;;19.75;;
20910;SDS011;10615;42.702;23.314;2024-03-02T00:05:50;29.42;;;18.90;;
20910;SDS011;10615;42.702;23.314;2024-03-02T00:06:52;30.92;;;19.40;;
20910;SDS011;10615;42.702;23.314;2024-03-02T00:07:58;29.98;;;19.55;;
20910;SDS011;10615;42.702;23.314;2024-03-02T00:09:00;30.88;;;21.73;;
20910;SDS011;10615;42.702;23.314;2024-03-02T00:10:01;33.08;;;19.30;;
20910;SDS011;10615;42.702;23.314;2024-03-02T00:11:09;27.58;;;18.85;;
20910;SDS011;10615;42.702;23.314;2024-03-02T00:12:12;30.50;;;18.95;;
20910;SDS011;10615;42.702;23.314;2024-03-02T00:13:16;29.55;;;19.45;;
20910;SDS011;10615;42.702;23.314;2024-03-02T00:14:20;30.25;;;19.02;;
20910;SDS011;10615;42.702;23.314;2024-03-02T00:16:30;30.48;;;18.25;;
20910;SDS011;10615;42.702;23.314;2024-03-02T00:17:32;28.15;;;18.23;;
20910;SDS011;10615;42.702;23.314;2024-03-02T00:18:34;31.30;;;19.98;;
20910;SDS011;10615;42.702;23.314;2024-03-02T00:19:38;28.83;;;19.00;;
20910;SDS011;10615;42.702;23.314;2024-03-02T00:20:40;29.83;;;18.13;;
20910;SDS011;10615;42.702;23.314;2024-03-02T00:21:41;28.67;;;18.88;;
20910;SDS011;10615;42.702;23.314;2024-03-02T00:22:42;26.95;;;18.95;;
20910;SDS011;10615;42.702;23.314;2024-03-02T00:23:42;28.83;;;17.88;;
20910;SDS011;10615;42.702;23.314;2024-03-02T00:24:43;28.95;;;18.30;;
20910;SDS011;10615;42.702;23.314;2024-03-02T00:25:44;27.20;;;17.92;;
20910;SDS011;10615;42.702;23.314;2024-03-02T00:26:48;27.90;;;18.98;;
20910;SDS011;10615;42.702;23.314;2024-03-02T00:27:49;29.33;;;18.50;;
20910;SDS011;10615;42.702;23.314;2024-03-02T00:28:49;31.27;;;18.83;;
20910;SDS011;10615;42.702;23.314;2024-03-02T00:29:54;27.00;;;17.80;;
20910;SDS011;10615;42.702;23.314;2024-03-02T00:32:01;30.67;;;20.17;;
20910;SDS011;10615;42.702;23.314;2024-03-02T00:33:01;27.20;;;18.45;;
20910;SDS011;10615;42.702;23.314;2024-03-02T00:34:07;29.13;;;18.75;;
20910;SDS011;10615;42.702;23.314;2024-03-02T00:35:08;25.48;;;17.08;;
20910;SDS011;10615;42.702;23.314;2024-03-02T00:36:10;26.60;;;18.25;;
20910;SDS011;10615;42.702;23.314;2024-03-02T00:37:13;26.60;;;17.30;;
20910;SDS011;10615;42.702;23.314;2024-03-02T00:38:14;25.42;;;17.13;;
20910;SDS011;10615;42.702;23.314;2024-03-02T00:39:15;25.80;;;17.10;;
20910;SDS011;10615;42.702;23.314;2024-03-02T00:40:17;25.63;;;17.30;;
20910;SDS011;10615;42.702;23.314;2024-03-02T00:41:29;27.02;;;17.83;;
20910;SDS011;10615;42.702;23.314;2024-03-02T00:42:31;27.83;;;17.75;;
20910;SDS011;10615;42.702;23.314;2024-03-02T00:43:38;27.55;;;18.15;;
20910;SDS011;10615;42.702;23.314;2024-03-02T00:44:41;23.92;;;15.85;;
20910;SDS011;10615;42.702;23.314;2024-03-02T00:45:42;25.38;;;17.05;;
20910;SDS011;10615;42.702;23.314;2024-03-02T00:46:43;24.88;;;15.98;;
20910;SDS011;10615;42.702;23.314;2024-03-02T00:47:44;26.58;;;17.27;;
20910;SDS011;10615;42.702;23.314;2024-03-02T00:48:47;26.00;;;17.60;;
20910;SDS011;10615;42.702;23.314;2024-03-02T00:49:54;25.33;;;17.80;;
20910;SDS011;10615;42.702;23.314;2024-03-02T00:50:54;25.88;;;17.77;;
20910;SDS011;10615;42.702;23.314;2024-03-02T00:51:55;27.00;;;16.95;;
20910;SDS011;10615;42.702;23.314;2024-03-02T00:52:56;24.85;;;17.27;;
20910;SDS011;10615;42.702;23.314;2024-03-02T00:54:02;27.73;;;18.52;;
20910;SDS011;10615;42.702;23.314;2024-03-02T00:55:07;26.17;;;17.92;;
20910;SDS011;10615;42.702;23.314;2024-03-02T00:56:09;26.58;;;17.45;;
20910;SDS011;10615;42.702;23.314;2024-03-02T00:57:10;25.55;;;17.85;;
20910;SDS011;10615;42.702;23.314;2024-03-02T00:58:12;28.95;;;18.48;;
20910;SDS011;10615;42.702;23.314;2024-03-02T00:59:12;27.38;;;17.95;;
20910;SDS011;10615;42.702;23.314;2024-03-02T01:00:13;27.60;;;18.05;;
20910;SDS011;10615;42.702;23.314;2024-03-02T01:01:15;31.65;;;19.02;;
20910;SDS011;10615;42.702;23.314;2024-03-02T01:02:16;26.30;;;17.83;;
20910;SDS011;10615;42.702;23.314;2024-03-02T01:03:17;26.42;;;17.95;;
20910;SDS011;10615;42.702;23.314;2024-03-02T01:04:19;28.80;;;18.70;;
20910;SDS011;10615;42.702;23.314;2024-03-02T01:05:19;30.25;;;18.88;;
20910;SDS011;10615;42.702;23.314;2024-03-02T01:06:20;26.65;;;18.27;;
20910;SDS011;10615;42.702;23.314;2024-03-02T01:07:22;26.73;;;18.00;;
20910;SDS011;10615;42.702;23.314;2024-03-02T01:08:23;27.50;;;18.35;;
20910;SDS011;10615;42.702;23.314;2024-03-02T01:09:24;27.42;;;18.90;;
20910;SDS011;10615;42.702;23.314;2024-03-02T01:10:25;27.80;;;19.02;;
20910;SDS011;10615;42.702;23.314;2024-03-02T01:11:28;29.25;;;18.75;;
20910;SDS011;10615;42.702;23.314;2024-03-02T01:12:30;28.85;;;18.45;;
20910;SDS011;10615;42.702;23.314;2024-03-02T01:13:31;28.48;;;18.30;;
20910;SDS011;10615;42.702;23.314;2024-03-02T01:14:31;24.73;;;16.65;;
20910;SDS011;10615;42.702;23.314;2024-03-02T01:15:33;30.55;;;16.45;;
20910;SDS011;10615;42.702;23.314;2024-03-02T01:16:33;29.08;;;17.40;;
20910;SDS011;10615;42.702;23.314;2024-03-02T01:17:34;24.77;;;16.65;;
20910;SDS011;10615;42.702;23.314;2024-03-02T01:18:35;27.40;;;17.25;;
20910;SDS011;10615;42.702;23.314;2024-03-02T01:19:36;25.42;;;16.35;;
20910;SDS011;10615;42.702;23.314;2024-03-02T01:20:37;24.05;;;16.52;;
20910;SDS011;10615;42.702;23.314;2024-03-02T01:21:38;25.65;;;17.05;;
20910;SDS011;10615;42.702;23.314;2024-03-02T01:22:39;25.02;;;17.25;;
20910;SDS011;10615;42.702;23.314;2024-03-02T01:23:40;25.10;;;17.30;;
20910;SDS011;10615;42.702;23.314;2024-03-02T01:24:40;25.48;;;16.00;;
20910;SDS011;10615;42.702;23.314;2024-03-02T01:25:42;24.67;;;17.27;;
20910;SDS011;10615;42.702;23.314;2024-03-02T01:26:43;25.25;;;17.00;;
20910;SDS011;10615;42.702;23.314;2024-03-02T01:27:43;27.55;;;18.25;;
20910;SDS011;10615;42.702;23.314;2024-03-02T01:28:44;27.17;;;18.27;;
20910;SDS011;10615;42.702;23.314;2024-03-02T01:29:45;29.08;;;18.23;;
20910;SDS011;10615;42.702;23.314;2024-03-02T01:30:45;29.02;;;19.25;;
20910;SDS011;10615;42.702;23.314;2024-03-02T01:31:47;35.08;;;19.75;;
20910;SDS011;10615;42.702;23.314;2024-03-02T01:32:47;28.67;;;18.80;;
20910;SDS011;10615;42.702;23.314;2024-03-02T01:33:48;28.85;;;19.33;;
20910;SDS011;10615;42.702;23.314;2024-03-02T01:34:49;32.95;;;19.75;;
20910;SDS011;10615;42.702;23.314;2024-03-02T01:35:49;29.60;;;20.05;;
20910;SDS011;10615;42.702;23.314;2024-03-02T01:36:50;30.92;;;20.58;;
20910;SDS011;10615;42.702;23.314;2024-03-02T01:37:51;34.47;;;21.73;;
20910;SDS011;10615;42.702;23.314;2024-03-02T01:38:52;32.83;;;21.13;;
20910;SDS011;10615;42.702;23.314;2024-03-02T01:39:52;30.60;;;21.65;;
20910;SDS011;10615;42.702;23.314;2024-03-02T01:40:53;31.23;;;20.40;;
20910;SDS011;10615;42.702;23.314;2024-03-02T01:41:55;29.98;;;20.77;;
20910;SDS011;10615;42.702;23.314;2024-03-02T01:42:56;33.88;;;21.42;;
20910;SDS011;10615;42.702;23.314;2024-03-02T01:43:59;30.52;;;20.60;;
20910;SDS011;10615;42.702;23.314;2024-03-02T01:45:00;30.52;;;20.13;;
20910;SDS011;10615;42.702;23.314;2024-03-02T01:46:00;35.90;;;22.13;;
20910;SDS011;10615;42.702;23.314;2024-03-02T01:47:01;34.28;;;21.60;;
20910;SDS011;10615;42.702;23.314;2024-03-02T01:48:02;33.58;;;21.48;;
20910;SDS011;10615;42.702;23.314;2024-03-02T01:49:04;31.58;;;21.40;;
20910;SDS011;10615;42.702;23.314;2024-03-02T01:50:06;31.42;;;20.85;;
20910;SDS011;10615;42.702;23.314;2024-03-02T01:51:08;33.42;;;22.08;;
20910;SDS011;10615;42.702;23.314;2024-03-02T01:52:10;33.47;;;21.20;;
20910;SDS011;10615;42.702;23.314;2024-03-02T01:53:11;34.85;;;21.23;;
20910;SDS011;10615;42.702;23.314;2024-03-02T01:54:12;30.73;;;21.33;;
20910;SDS011;10615;42.702;23.314;2024-03-02T01:55:12;32.58;;;21.30;;
20910;SDS011;10615;42.702;23.314;2024-03-02T01:56:13;32.78;;;21.80;;
20910;SDS011;10615;42.702;23.314;2024-03-02T01:57:14;32.97;;;22.08;;
20910;SDS011;10615;42.702;23.314;2024-03-02T01:58:15;35.20;;;21.67;;
20910;SDS011;10615;42.702;23.314;2024-03-02T01:59:16;31.70;;;21.10;;
20910;SDS011;10615;42.702;23.314;2024-03-02T02:00:17;30.80;;;20.63;;
20910;SDS011;10615;42.702;23.314;2024-03-02T02:01:19;36.47;;;22.45;;
20910;SDS011;10615;42.702;23.314;2024-03-02T02:02:20;31.92;;;21.70;;
20910;SDS011;10615;42.702;23.314;2024-03-02T02:03:21;32.17;;;21.35;;
20910;SDS011;10615;42.702;23.314;2024-03-02T02:04:22;33.60;;;22.15;;
20910;SDS011;10615;42.702;23.314;2024-03-02T02:05:27;34.08;;;22.08;;
20910;SDS011;10615;42.702;23.314;2024-03-02T02:06:28;32.25;;;21.67;;
20910;SDS011;10615;42.702;23.314;2024-03-02T02:07:29;31.67;;;20.67;;
20910;SDS011;10615;42.702;23.314;2024-03-02T02:08:31;35.45;;;22.63;;
20910;SDS011;10615;42.702;23.314;2024-03-02T02:09:32;31.88;;;20.25;;
20910;SDS011;10615;42.702;23.314;2024-03-02T02:10:32;35.20;;;22.00;;
20910;SDS011;10615;42.702;23.314;2024-03-02T02:11:33;35.63;;;22.60;;
20910;SDS011;10615;42.702;23.314;2024-03-02T02:12:34;30.55;;;21.50;;
20910;SDS011;10615;42.702;23.314;2024-03-02T02:13:35;35.17;;;21.60;;
20910;SDS011;10615;42.702;23.314;2024-03-02T02:14:36;31.60;;;20.83;;
20910;SDS011;10615;42.702;23.314;2024-03-02T02:15:37;31.92;;;21.45;;
20910;SDS011;10615;42.702;23.314;2024-03-02T02:16:38;32.10;;;21.77;;
20910;SDS011;10615;42.702;23.314;2024-03-02T02:17:38;31.25;;;21.00;;
20910;SDS011;10615;42.702;23.314;2024-03-02T02:18:39;34.60;;;22.52;;
20910;SDS011;10615;42.702;23.314;2024-03-02T02:19:40;32.45;;;21.20;;
20910;SDS011;10615;42.702;23.314;2024-03-02T02:20:41;36.00;;;22.67;;
20910;SDS011;10615;42.702;23.314;2024-03-02T02:21:42;33.55;;;22.60;;
20910;SDS011;10615;42.702;23.314;2024-03-02T02:22:55;32.53;;;21.40;;
20910;SDS011;10615;42.702;23.314;2024-03-02T02:23:57;30.83;;;21.10;;
20910;SDS011;10615;42.702;23.314;2024-03-02T02:24:58;33.80;;;21.80;;
20910;SDS011;10615;42.702;23.314;2024-03-02T02:25:58;38.60;;;22.63;;
20910;SDS011;10615;42.702;23.314;2024-03-02T02:26:59;31.70;;;21.05;;
20910;SDS011;10615;42.702;23.314;2024-03-02T02:28:00;31.85;;;22.17;;
20910;SDS011;10615;42.702;23.314;2024-03-02T02:29:00;30.42;;;21.48;;
20910;SDS011;10615;42.702;23.314;2024-03-02T02:30:01;33.67;;;21.95;;
20910;SDS011;10615;42.702;23.314;2024-03-02T02:31:03;30.55;;;21.48;;
20910;SDS011;10615;42.702;23.314;2024-03-02T02:32:04;36.95;;;21.38;;
20910;SDS011;10615;42.702;23.314;2024-03-02T02:33:05;34.20;;;22.45;;
20910;SDS011;10615;42.702;23.314;2024-03-02T02:34:06;33.60;;;21.58;;
20910;SDS011;10615;42.702;23.314;2024-03-02T02:35:06;32.42;;;20.85;;
20910;SDS011;10615;42.702;23.314;2024-03-02T02:36:08;35.72;;;22.63;;
20910;SDS011;10615;42.702;23.314;2024-03-02T02:37:12;32.60;;;20.88;;
20910;SDS011;10615;42.702;23.314;2024-03-02T02:38:12;35.47;;;21.92;;
20910;SDS011;10615;42.702;23.314;2024-03-02T02:39:13;33.85;;;21.42;;
20910;SDS011;10615;42.702;23.314;2024-03-02T02:40:17;33.40;;;21.50;;
20910;SDS011;10615;42.702;23.314;2024-03-02T02:41:19;38.53;;;21.73;;
20910;SDS011;10615;42.702;23.314;2024-03-02T02:42:19;33.63;;;20.83;;
20910;SDS011;10615;42.702;23.314;2024-03-02T02:43:20;32.40;;;22.08;;
20910;SDS011;10615;42.702;23.314;2024-03-02T02:44:21;30.58;;;21.23;;
20910;SDS011;10615;42.702;23.314;2024-03-02T02:45:21;34.70;;;22.02;;
20910;SDS011;10615;42.702;23.314;2024-03-02T02:46:23;30.55;;;20.65;;
20910;SDS011;10615;42.702;23.314;2024-03-02T02:47:23;35.45;;;22.77;;
20910;SDS011;10615;42.702;23.314;2024-03-02T02:48:25;34.13;;;21.85;;
20910;SDS011;10615;42.702;23.314;2024-03-02T02:49:26;34.25;;;22.02;;
20910;SDS011;10615;42.702;23.314;2024-03-02T02:50:27;33.35;;;21.73;;
20910;SDS011;10615;42.702;23.314;2024-03-02T02:51:27;33.75;;;22.23;;
20910;SDS011;10615;42.702;23.314;2024-03-02T02:52:34;31.58;;;21.08;;
20910;SDS011;10615;42.702;23.314;2024-03-02T02:53:36;35.15;;;21.52;;
20910;SDS011;10615;42.702;23.314;2024-03-02T02:54:40;31.20;;;21.25;;
20910;SDS011;10615;42.702;23.314;2024-03-02T02:55:41;34.72;;;21.85;;
20910;SDS011;10615;42.702;23.314;2024-03-02T02:56:43;31.58;;;20.55;;
20910;SDS011;10615;42.702;23.314;2024-03-02T02:57:44;32.17;;;21.05;;
20910;SDS011;10615;42.702;23.314;2024-03-02T02:58:45;32.17;;;21.58;;
20910;SDS011;10615;42.702;23.314;2024-03-02T02:59:46;32.97;;;21.45;;
20910;SDS011;10615;42.702;23.314;2024-03-02T03:00:47;33.00;;;21.00;;
20910;SDS011;10615;42.702;23.314;2024-03-02T03:01:48;34.53;;;21.45;;
20910;SDS011;10615;42.702;23.314;2024-03-02T03:02:49;33.75;;;22.48;;
20910;SDS011;10615;42.702;23.314;2024-03-02T03:03:50;31.63;;;20.95;;
20910;SDS011;10615;42.702;23.314;2024-03-02T03:04:50;31.80;;;21.15;;
20910;SDS011;10615;42.702;23.314;2024-03-02T03:05:51;33.15;;;21.60;;
20910;SDS011;10615;42.702;23.314;2024-03-02T03:06:52;32.67;;;21.52;;
20910;SDS011;10615;42.702;23.314;2024-03-02T03:07:52;33.20;;;22.23;;
20910;SDS011;10615;42.702;23.314;2024-03-02T03:08:53;31.67;;;20.60;;
20910;SDS011;10615;42.702;23.314;2024-03-02T03:09:54;30.88;;;21.23;;
20910;SDS011;10615;42.702;23.314;2024-03-02T03:10:54;31.10;;;21.83;;
20910;SDS011;10615;42.702;23.314;2024-03-02T03:11:55;38.08;;;26.27;;
20910;SDS011;10615;42.702;23.314;2024-03-02T03:12:56;39.42;;;26.77;;
20910;SDS011;10615;42.702;23.314;2024-03-02T03:13:57;39.22;;;25.88;;
20910;SDS011;10615;42.702;23.314;2024-03-02T03:14:58;36.80;;;25.70;;
20910;SDS011;10615;42.702;23.314;2024-03-02T03:15:59;37.78;;;24.13;;
20910;SDS011;10615;42.702;23.314;2024-03-02T03:17:00;35.95;;;24.80;;
20910;SDS011;10615;42.702;23.314;2024-03-02T03:18:01;42.88;;;27.08;;
20910;SDS011;10615;42.702;23.314;2024-03-02T03:19:03;36.90;;;25.52;;
20910;SDS011;10615;42.702;23.314;2024-03-02T03:20:04;38.75;;;24.00;;
20910;SDS011;10615;42.702;23.314;2024-03-02T03:21:06;33.28;;;23.17;;
20910;SDS011;10615;42.702;23.314;2024-03-02T03:22:06;33.22;;;23.75;;
20910;SDS011;10615;42.702;23.314;2024-03-02T03:23:07;34.45;;;22.35;;
20910;SDS011;10615;42.702;23.314;2024-03-02T03:24:08;33.00;;;22.50;;
20910;SDS011;10615;42.702;23.314;2024-03-02T03:25:09;31.90;;;22.17;;
20910;SDS011;10615;42.702;23.314;2024-03-02T03:26:10;31.85;;;20.33;;
20910;SDS011;10615;42.702;23.314;2024-03-02T03:27:11;30.10;;;20.77;;
20910;SDS011;10615;42.702;23.314;2024-03-02T03:28:11;33.30;;;21.55;;
20910;SDS011;10615;42.702;23.314;2024-03-02T03:29:12;31.15;;;21.30;;
20910;SDS011;10615;42.702;23.314;2024-03-02T03:30:13;30.75;;;21.23;;
20910;SDS011;10615;42.702;23.314;2024-03-02T03:31:14;31.27;;;20.15;;
20910;SDS011;10615;42.702;23.314;2024-03-02T03:32:14;31.85;;;21.55;;
20910;SDS011;10615;42.702;23.314;2024-03-02T03:33:16;32.65;;;20.77;;
20910;SDS011;10615;42.702;23.314;2024-03-02T03:34:17;33.45;;;21.80;;
20910;SDS011;10615;42.702;23.314;2024-03-02T03:35:18;29.77;;;20.60;;
20910;SDS011;10615;42.702;23.314;2024-03-02T03:36:18;36.03;;;21.67;;
20910;SDS011;10615;42.702;23.314;2024-03-02T03:37:19;31.30;;;20.30;;
20910;SDS011;10615;42.702;23.314;2024-03-02T03:38:20;32.42;;;20.88;;
20910;SDS011;10615;42.702;23.314;2024-03-02T03:39:21;35.53;;;21.63;;
20910;SDS011;10615;42.702;23.314;2024-03-02T03:40:21;30.38;;;21.35;;
20910;SDS011;10615;42.702;23.314;2024-03-02T03:41:22;32.20;;;22.15;;
20910;SDS011;10615;42.702;23.314;2024-03-02T03:42:23;34.22;;;21.25;;
20910;SDS011;10615;42.702;23.314;2024-03-02T03:43:23;33.22;;;21.05;;
20910;SDS011;10615;42.702;23.314;2024-03-02T03:44:24;30.15;;;20.45;;
20910;SDS011;10615;42.702;23.314;2024-03-02T03:45:25;32.63;;;20.88;;
20910;SDS011;10615;42.702;23.314;2024-03-02T03:46:26;31.90;;;21.30;;
20910;SDS011;10615;42.702;23.314;2024-03-02T03:47:27;31.77;;;21.83;;
20910;SDS011;10615;42.702;23.314;2024-03-02T03:48:28;31.80;;;21.25;;
20910;SDS011;10615;42.702;23.314;2024-03-02T03:49:30;31.88;;;22.15;;
20910;SDS011;10615;42.702;23.314;2024-03-02T03:50:31;33.13;;;21.83;;
20910;SDS011;10615;42.702;23.314;2024-03-02T03:51:32;31.63;;;20.77;;
20910;SDS011;10615;42.702;23.314;2024-03-02T03:52:33;31.33;;;21.25;;
20910;SDS011;10615;42.702;23.314;2024-03-02T03:53:33;34.03;;;22.23;;
20910;SDS011;10615;42.702;23.314;2024-03-02T03:54:34;29.50;;;20.42;;
20910;SDS011;10615;42.702;23.314;2024-03-02T03:55:37;31.95;;;20.95;;
20910;SDS011;10615;42.702;23.314;2024-03-02T03:56:37;32.92;;;21.10;;
20910;SDS011;10615;42.702;23.314;2024-03-02T03:57:38;31.83;;;21.08;;
20910;SDS011;10615;42.702;23.314;2024-03-02T03:58:39;32.30;;;21.15;;
20910;SDS011;10615;42.702;23.314;2024-03-02T03:59:40;30.10;;;20.33;;
20910;SDS011;10615;42.702;23.314;2024-03-02T04:00:40;29.70;;;20.27;;
20910;SDS011;10615;42.702;23.314;2024-03-02T04:01:41;33.40;;;21.52;;
20910;SDS011;10615;42.702;23.314;2024-03-02T04:02:42;34.45;;;22.23;;
20910;SDS011;10615;42.702;23.314;2024-03-02T04:03:42;31.83;;;20.77;;
20910;SDS011;10615;42.702;23.314;2024-03-02T04:04:43;31.10;;;21.30;;
20910;SDS011;10615;42.702;23.314;2024-03-02T04:05:44;35.60;;;22.35;;
20910;SDS011;10615;42.702;23.314;2024-03-02T04:06:45;33.13;;;21.48;;
20910;SDS011;10615;42.702;23.314;2024-03-02T04:07:45;30.33;;;21.00;;
20910;SDS011;10615;42.702;23.314;2024-03-02T04:08:46;33.70;;;21.60;;
20910;SDS011;10615;42.702;23.314;2024-03-02T04:09:47;32.03;;;21.92;;
20910;SDS011;10615;42.702;23.314;2024-03-02T04:10:48;31.58;;;20.30;;
20910;SDS011;10615;42.702;23.314;2024-03-02T04:11:48;33.20;;;21.10;;
20910;SDS011;10615;42.702;23.314;2024-03-02T04:12:49;32.45;;;20.95;;
20910;SDS011;10615;42.702;23.314;2024-03-02T04:13:50;29.92;;;20.25;;
20910;SDS011;10615;42.702;23.314;2024-03-02T04:14:51;33.08;;;21.13;;
20910;SDS011;10615;42.702;23.314;2024-03-02T04:15:52;30.55;;;20.20;;
20910;SDS011;10615;42.702;23.314;2024-03-02T04:16:53;36.53;;;21.73;;
20910;SDS011;10615;42.702;23.314;2024-03-02T04:17:54;31.40;;;20.63;;
20910;SDS011;10615;42.702;23.314;2024-03-02T04:18:55;34.08;;;20.73;;
20910;SDS011;10615;42.702;23.314;2024-03-02T04:19:56;31.58;;;21.15;;
20910;SDS011;10615;42.702;23.314;2024-03-02T04:20:56;28.92;;;20.70;;
20910;SDS011;10615;42.702;23.314;2024-03-02T04:21:59;33.45;;;21.05;;
20910;SDS011;10615;42.702;23.314;2024-03-02T04:22:59;32.83;;;21.10;;
20910;SDS011;10615;42.702;23.314;2024-03-02T04:24:00;31.48;;;21.13;;
20910;SDS011;10615;42.702;23.314;2024-03-02T04:25:01;31.05;;;21.00;;
20910;SDS011;10615;42.702;23.314;2024-03-02T04:26:02;33.53;;;21.98;;
20910;SDS011;10615;42.702;23.314;2024-03-02T04:27:04;34.78;;;21.88;;
20910;SDS011;10615;42.702;23.314;2024-03-02T04:28:04;32.90;;;21.67;;
20910;SDS011;10615;42.702;23.314;2024-03-02T04:29:05;30.85;;;21.33;;
20910;SDS011;10615;42.702;23.314;2024-03-02T04:30:06;32.20;;;21.38;;
20910;SDS011;10615;42.702;23.314;2024-03-02T04:31:07;33.00;;;22.17;;
20910;SDS011;10615;42.702;23.314;2024-03-02T04:32:08;31.30;;;21.83;;
20910;SDS011;10615;42.702;23.314;2024-03-02T04:33:08;30.90;;;21.02;;
20910;SDS011;10615;42.702;23.314;2024-03-02T04:34:10;31.65;;;21.10;;
20910;SDS011;10615;42.702;23.314;2024-03-02T04:35:10;31.95;;;21.45;;
20910;SDS011;10615;42.702;23.314;2024-03-02T04:36:12;30.30;;;20.88;;
20910;SDS011;10615;42.702;23.314;2024-03-02T04:37:13;33.33;;;21.50;;
20910;SDS011;10615;42.702;23.314;2024-03-02T04:38:14;31.88;;;22.20;;
20910;SDS011;10615;42.702;23.314;2024-03-02T04:39:16;35.90;;;22.00;;
20910;SDS011;10615;42.702;23.314;2024-03-02T04:40:16;28.55;;;19.88;;
20910;SDS011;10615;42.702;23.314;2024-03-02T04:41:17;33.70;;;21.90;;
20910;SDS011;10615;42.702;23.314;2024-03-02T04:42:18;31.30;;;21.30;;
20910;SDS011;10615;42.702;23.314;2024-03-02T04:43:19;31.90;;;20.88;;
20910;SDS011;10615;42.702;23.314;2024-03-02T04:44:20;33.97;;;21.50;;
20910;SDS011;10615;42.702;23.314;2024-03-02T04:45:20;29.85;;;21.20;;
20910;SDS011;10615;42.702;23.314;2024-03-02T04:46:21;29.98;;;20.85;;
20910;SDS011;10615;42.702;23.314;2024-03-02T04:47:22;39.58;;;22.17;;
20910;SDS011;10615;42.702;23.314;2024-03-02T04:48:23;42.40;;;22.10;;
20910;SDS011;10615;42.702;23.314;2024-03-02T04:49:24;37.78;;;22.50;;
20910;SDS011;10615;42.702;23.314;2024-03-02T04:50:24;35.95;;;22.23;;
20910;SDS011;10615;42.702;23.314;2024-03-02T04:51:25;32.40;;;20.92;;
20910;SDS011;10615;42.702;23.314;2024-03-02T04:52:26;36.38;;;22.38;;
20910;SDS011;10615;42.702;23.314;2024-03-02T04:53:26;30.67;;;21.42;;
20910;SDS011;10615;42.702;23.314;2024-03-02T04:54:27;34.05;;;20.65;;
20910;SDS011;10615;42.702;23.314;2024-03-02T04:55:28;31.52;;;21.17;;
20910;SDS011;10615;42.702;23.314;2024-03-02T04:56:29;36.33;;;21.90;;
20910;SDS011;10615;42.702;23.314;2024-03-02T04:57:32;33.17;;;21.90;;
20910;SDS011;10615;42.702;23.314;2024-03-02T04:58:33;32.85;;;21.00;;
20910;SDS011;10615;42.702;23.314;2024-03-02T04:59:34;31.42;;;21.50;;
20910;SDS011;10615;42.702;23.314;2024-03-02T05:00:35;33.78;;;20.55;;
20910;SDS011;10615;42.702;23.314;2024-03-02T05:01:36;34.25;;;21.65;;
20910;SDS011;10615;42.702;23.314;2024-03-02T05:02:36;30.15;;;21.55;;
20910;SDS011;10615;42.702;23.314;2024-03-02T05:03:37;31.83;;;21.65;;
20910;SDS011;10615;42.702;23.314;2024-03-02T05:04:38;33.35;;;22.38;;
20910;SDS011;10615;42.702;23.314;2024-03-02T05:05:38;33.53;;;21.77;;
20910;SDS011;10615;42.702;23.314;2024-03-02T05:06:39;34.40;;;21.25;;
20910;SDS011;10615;42.702;23.314;2024-03-02T05:07:40;32.92;;;21.65;;
20910;SDS011;10615;42.702;23.314;2024-03-02T05:08:45;32.10;;;21.58;;
20910;SDS011;10615;42.702;23.314;2024-03-02T05:09:48;36.33;;;22.13;;
20910;SDS011;10615;42.702;23.314;2024-03-02T05:10:48;34.50;;;21.73;;
20910;SDS011;10615;42.702;23.314;2024-03-02T05:11:49;32.45;;;20.55;;
20910;SDS011;10615;42.702;23.314;2024-03-02T05:13:15;32.15;;;21.83;;
20910;SDS011;10615;42.702;23.314;2024-03-02T05:14:17;32.38;;;21.05;;
20910;SDS011;10615;42.702;23.314;2024-03-02T05:15:18;33.38;;;22.02;;
20910;SDS011;10615;42.702;23.314;2024-03-02T05:16:19;32.75;;;21.60;;
20910;SDS011;10615;42.702;23.314;2024-03-02T05:17:19;34.17;;;21.38;;
20910;SDS011;10615;42.702;23.314;2024-03-02T05:18:20;31.95;;;21.08;;
20910;SDS011;10615;42.702;23.314;2024-03-02T05:19:21;32.53;;;21.80;;
20910;SDS011;10615;42.702;23.314;2024-03-02T05:20:21;31.25;;;20.35;;
20910;SDS011;10615;42.702;23.314;2024-03-02T05:21:22;32.90;;;21.95;;
20910;SDS011;10615;42.702;23.314;2024-03-02T05:22:23;34.08;;;22.52;;
20910;SDS011;10615;42.702;23.314;2024-03-02T05:23:23;38.17;;;24.00;;
20910;SDS011;10615;42.702;23.314;2024-03-02T05:24:24;39.13;;;23.58;;
20910;SDS011;10615;42.702;23.314;2024-03-02T05:25:27;38.35;;;25.17;;
20910;SDS011;10615;42.702;23.314;2024-03-02T05:26:28;40.67;;;26.58;;
20910;SDS011;10615;42.702;23.314;2024-03-02T05:27:29;41.47;;;27.58;;
20910;SDS011;10615;42.702;23.314;2024-03-02T05:28:30;38.33;;;26.60;;
20910;SDS011;10615;42.702;23.314;2024-03-02T05:29:31;38.70;;;26.98;;
20910;SDS011;10615;42.702;23.314;2024-03-02T05:30:31;41.72;;;27.65;;
20910;SDS011;10615;42.702;23.314;2024-03-02T05:31:32;41.95;;;28.75;;
20910;SDS011;10615;42.702;23.314;2024-03-02T05:32:33;44.50;;;29.27;;
20910;SDS011;10615;42.702;23.314;2024-03-02T05:33:34;45.88;;;29.42;;
20910;SDS011;10615;42.702;23.314;2024-03-02T05:34:35;40.45;;;27.67;;
20910;SDS011;10615;42.702;23.314;2024-03-02T05:35:35;42.30;;;26.90;;
20910;SDS011;10615;42.702;23.314;2024-03-02T05:36:36;41.05;;;27.83;;
20910;SDS011;10615;42.702;23.314;2024-03-02T05:37:38;43.10;;;28.10;;
20910;SDS011;10615;42.702;23.314;2024-03-02T05:38:39;40.50;;;26.90;;
20910;SDS011;10615;42.702;23.314;2024-03-02T05:39:40;39.97;;;26.45;;
20910;SDS011;10615;42.702;23.314;2024-03-02T05:40:41;40.80;;;26.38;;
20910;SDS011;10615;42.702;23.314;2024-03-02T05:41:41;42.25;;;25.55;;
20910;SDS011;10615;42.702;23.314;2024-03-02T05:42:42;37.00;;;24.58;;
20910;SDS011;10615;42.702;23.314;2024-03-02T05:43:43;35.97;;;22.75;;
20910;SDS011;10615;42.702;23.314;2024-03-02T05:44:43;32.17;;;21.83;;
20910;SDS011;10615;42.702;23.314;2024-03-02T05:45:44;33.47;;;22.80;;
20910;SDS011;10615;42.702;23.314;2024-03-02T05:46:45;38.05;;;24.10;;
20910;SDS011;10615;42.702;23.314;2024-03-02T05:47:46;39.15;;;23.80;;
20910;SDS011;10615;42.702;23.314;2024-03-02T05:48:47;35.17;;;23.75;;
20910;SDS011;10615;42.702;23.314;2024-03-02T05:49:47;37.63;;;22.60;;
20910;SDS011;10615;42.702;23.314;2024-03-02T05:50:48;32.75;;;21.58;;
20910;SDS011;10615;42.702;23.314;2024-03-02T05:51:49;34.20;;;21.52;;
20910;SDS011;10615;42.702;23.314;2024-03-02T05:52:49;36.17;;;23.65;;
20910;SDS011;10615;42.702;23.314;2024-03-02T05:53:50;35.85;;;23.77;;
20910;SDS011;10615;42.702;23.314;2024-03-02T05:54:51;36.55;;;24.95;;
20910;SDS011;10615;42.702;23.314;2024-03-02T05:55:51;35.42;;;24.70;;